createdAt,value
2018-07-30T00:00:51.988Z,99.90
2018-07-30T00:03:20.388Z,99.90
2018-07-30T00:05:49.692Z,99.90
2018-07-30T00:08:18.074Z,99.90
2018-07-30T00:10:47.294Z,99.90
2018-07-30T00:13:16.852Z,99.90
2018-07-30T00:15:45.258Z,99.90
2018-07-30T00:18:13.665Z,99.90
2018-07-30T00:20:42.379Z,99.90
2018-07-30T00:23:10.870Z,99.90
2018-07-30T00:25:39.219Z,99.90
2018-07-30T00:28:07.607Z,99.90
2018-07-30T00:30:36.003Z,99.90
2018-07-30T00:33:05.271Z,99.90
2018-07-30T00:35:33.645Z,99.90
2018-07-30T00:38:02.818Z,99.90
2018-07-30T00:40:31.211Z,99.90
2018-07-30T00:43:00.347Z,99.90
2018-07-30T00:48:21.834Z,99.90
2018-07-30T00:50:50.247Z,99.90
2018-07-30T00:53:19.367Z,99.90
2018-07-30T00:55:47.779Z,99.90
2018-07-30T00:58:16.123Z,99.90
2018-07-30T01:00:50.947Z,99.90
2018-07-30T01:03:19.331Z,99.90
2018-07-30T01:05:47.713Z,99.90
2018-07-30T01:08:16.133Z,99.90
2018-07-30T01:10:44.532Z,99.90
2018-07-30T01:13:13.809Z,99.90
2018-07-30T01:15:43.103Z,99.90
2018-07-30T01:18:11.585Z,99.90
2018-07-30T01:20:39.941Z,99.90
2018-07-30T01:23:08.326Z,99.90
2018-07-30T01:25:36.782Z,99.90
2018-07-30T01:28:05.233Z,99.90
2018-07-30T01:30:33.620Z,99.90
2018-07-30T01:33:03.112Z,99.90
2018-07-30T01:35:31.557Z,99.90
2018-07-30T01:37:59.917Z,99.90
2018-07-30T01:40:28.280Z,99.90
2018-07-30T01:42:58.044Z,99.90
2018-07-30T01:45:26.491Z,99.90
2018-07-30T01:47:54.867Z,99.90
2018-07-30T01:50:23.449Z,99.90
2018-07-30T01:52:51.862Z,99.90
2018-07-30T01:55:20.251Z,99.90
2018-07-30T02:02:13.951Z,99.90
2018-07-30T02:04:42.339Z,99.90
2018-07-30T02:07:10.881Z,99.90
2018-07-30T02:09:39.391Z,99.90
2018-07-30T02:12:07.792Z,99.90
2018-07-30T02:14:36.188Z,99.90
2018-07-30T02:17:05.862Z,99.90
2018-07-30T02:19:34.258Z,99.90
2018-07-30T02:22:02.800Z,99.90
2018-07-30T02:24:31.220Z,99.90
2018-07-30T02:26:59.762Z,99.90
2018-07-30T02:29:28.165Z,99.90
2018-07-30T02:31:56.585Z,99.90
2018-07-30T02:34:25.721Z,99.90
2018-07-30T02:36:54.098Z,99.90
2018-07-30T02:39:22.530Z,99.90
2018-07-30T02:41:50.896Z,99.90
2018-07-30T02:44:19.380Z,99.90
2018-07-30T02:46:47.781Z,99.90
2018-07-30T02:49:16.152Z,99.90
2018-07-30T02:51:45.291Z,99.90
2018-07-30T02:54:13.778Z,99.90
2018-07-30T02:56:42.150Z,99.90
2018-07-30T02:59:10.584Z,99.90
2018-07-30T03:01:39.801Z,99.90
2018-07-30T03:04:08.234Z,99.90
2018-07-30T03:06:36.595Z,99.90
2018-07-30T03:09:05.785Z,99.90
2018-07-30T03:11:34.156Z,99.90
2018-07-30T03:14:02.563Z,99.90
2018-07-30T03:16:30.956Z,99.90
2018-07-30T03:18:59.346Z,99.90
2018-07-30T03:21:27.742Z,99.90
2018-07-30T03:23:56.858Z,99.90
2018-07-30T03:26:25.236Z,99.90
2018-07-30T03:28:53.603Z,99.90
2018-07-30T03:31:22.728Z,99.90
2018-07-30T03:33:51.484Z,99.90
2018-07-30T03:36:19.798Z,99.90
2018-07-30T03:38:48.171Z,99.90
2018-07-30T03:41:16.557Z,99.90
2018-07-30T03:43:44.947Z,99.90
2018-07-30T03:46:13.292Z,99.90
2018-07-30T03:48:41.756Z,99.90
2018-07-30T03:51:10.638Z,99.90
2018-07-30T03:53:39.305Z,99.90
2018-07-30T03:56:07.705Z,99.90
2018-07-30T03:58:36.071Z,99.90
2018-07-30T04:01:04.442Z,99.90
2018-07-30T04:03:32.782Z,99.90
2018-07-30T04:06:01.514Z,99.90
2018-07-30T04:08:29.936Z,99.90
2018-07-30T04:10:58.435Z,99.90
2018-07-30T04:13:26.793Z,99.90
2018-07-30T04:15:55.172Z,99.90
2018-07-30T04:18:23.552Z,99.90
2018-07-30T04:20:51.990Z,99.90
2018-07-30T04:23:20.362Z,99.90
2018-07-30T04:25:49.536Z,99.90
2018-07-30T04:28:17.892Z,99.90
2018-07-30T04:30:46.378Z,99.90
2018-07-30T04:33:15.514Z,99.90
2018-07-30T04:35:43.874Z,99.90
2018-07-30T04:38:12.218Z,99.90
2018-07-30T04:40:41.370Z,99.90
2018-07-30T04:43:09.864Z,99.90
2018-07-30T04:45:38.480Z,99.90
2018-07-30T04:48:06.846Z,99.90
2018-07-30T04:50:35.210Z,99.90
2018-07-30T04:53:04.316Z,99.90
2018-07-30T04:55:32.693Z,99.90
2018-07-30T04:58:01.129Z,99.90
2018-07-30T05:00:29.611Z,99.90
2018-07-30T05:02:58.009Z,99.90
2018-07-30T05:05:26.411Z,99.90
2018-07-30T05:07:54.791Z,99.90
2018-07-30T05:10:23.162Z,99.90
2018-07-30T05:12:51.537Z,99.90
2018-07-30T05:15:20.058Z,99.90
2018-07-30T05:17:48.737Z,99.90
2018-07-30T05:20:17.137Z,99.90
2018-07-30T05:22:45.943Z,99.90
2018-07-30T05:25:14.289Z,99.90
2018-07-30T05:27:42.663Z,99.90
2018-07-30T05:30:11.797Z,99.90
2018-07-30T05:32:41.143Z,99.90
2018-07-30T05:35:09.557Z,99.90
2018-07-30T05:37:38.025Z,99.90
2018-07-30T05:40:06.433Z,99.90
2018-07-30T05:42:34.851Z,99.90
2018-07-30T05:45:03.237Z,99.90
2018-07-30T05:47:31.619Z,99.90
2018-07-30T05:49:59.979Z,99.90
2018-07-30T05:52:28.389Z,99.90
2018-07-30T05:54:56.873Z,99.90
2018-07-30T05:57:26.151Z,99.90
2018-07-30T05:59:54.637Z,99.90
2018-07-30T06:02:23.722Z,99.90
2018-07-30T06:04:52.105Z,99.90
2018-07-30T06:07:20.617Z,99.90
2018-07-30T06:09:49.160Z,99.90
2018-07-30T06:12:17.677Z,99.90
2018-07-30T06:14:46.055Z,99.90
2018-07-30T06:17:14.497Z,99.90
2018-07-30T06:19:42.937Z,99.90
2018-07-30T06:22:11.357Z,99.90
2018-07-30T06:24:39.765Z,99.90
2018-07-30T06:27:08.109Z,99.90
2018-07-30T06:29:36.530Z,99.90
2018-07-30T06:32:05.016Z,99.90
2018-07-30T06:34:33.501Z,99.90
2018-07-30T06:37:01.956Z,99.90
2018-07-30T06:39:30.467Z,99.90
2018-07-30T06:41:59.581Z,99.90
2018-07-30T06:44:27.953Z,99.90
2018-07-30T06:46:56.313Z,99.90
2018-07-30T06:49:24.795Z,99.90
2018-07-30T06:51:53.187Z,99.90
2018-07-30T06:54:21.689Z,99.90
2018-07-30T06:56:50.038Z,99.90
2018-07-30T06:59:18.413Z,99.90
2018-07-30T07:01:46.817Z,99.90
2018-07-30T07:04:15.223Z,99.90
2018-07-30T07:06:43.713Z,99.90
2018-07-30T07:09:12.785Z,99.90
2018-07-30T07:11:41.166Z,99.90
2018-07-30T07:14:10.310Z,99.90
2018-07-30T07:16:38.749Z,99.90
2018-07-30T07:19:07.159Z,99.90
2018-07-30T07:21:35.585Z,99.90
2018-07-30T07:24:03.927Z,99.90
2018-07-30T07:26:32.305Z,99.90
2018-07-30T07:29:00.678Z,99.90
2018-07-30T07:31:29.114Z,99.90
2018-07-30T07:33:57.559Z,99.90
2018-07-30T07:36:26.160Z,99.90
2018-07-30T07:38:54.544Z,99.90
2018-07-30T07:41:23.186Z,99.90
2018-07-30T07:43:51.985Z,99.90
2018-07-30T07:46:20.374Z,99.90
2018-07-30T07:48:48.737Z,99.90
2018-07-30T07:51:17.160Z,99.90
2018-07-30T07:53:45.669Z,99.90
2018-07-30T07:56:14.079Z,99.90
2018-07-30T07:58:42.473Z,99.50
2018-07-30T08:01:10.842Z,99.60
2018-07-30T08:03:39.249Z,98.70
2018-07-30T08:06:07.794Z,98.60
2018-07-30T08:08:36.138Z,98.60
2018-07-30T08:11:05.346Z,98.40
2018-07-30T08:13:33.636Z,98.50
2018-07-30T08:16:02.100Z,98.60
2018-07-30T08:18:30.486Z,98.40
2018-07-30T08:20:58.887Z,97.50
2018-07-30T08:23:27.323Z,97.30
2018-07-30T08:25:55.894Z,96.50
2018-07-30T08:28:25.283Z,96.60
2018-07-30T08:30:53.673Z,96.30
2018-07-30T08:33:22.155Z,95.10
2018-07-30T08:35:50.671Z,94.00
2018-07-30T08:38:19.819Z,93.60
2018-07-30T08:40:48.179Z,93.50
2018-07-30T08:43:16.693Z,92.90
2018-07-30T08:45:45.071Z,92.00
2018-07-30T08:48:14.257Z,92.00
2018-07-30T08:50:42.632Z,92.00
2018-07-30T08:53:11.219Z,91.10
2018-07-30T08:55:39.606Z,91.50
2018-07-30T08:58:07.983Z,91.60
2018-07-30T09:00:36.392Z,92.00
2018-07-30T09:03:04.851Z,92.20
2018-07-30T09:05:33.408Z,92.40
2018-07-30T09:08:01.857Z,92.10
2018-07-30T09:10:30.247Z,90.70
2018-07-30T09:12:58.650Z,90.80
2018-07-30T09:15:27.039Z,89.40
2018-07-30T09:17:55.616Z,87.90
2018-07-30T09:20:24.113Z,86.30
2018-07-30T09:22:52.490Z,89.50
2018-07-30T09:25:20.897Z,86.30
2018-07-30T09:27:50.254Z,84.70
2018-07-30T09:30:18.769Z,84.80
2018-07-30T09:32:47.254Z,89.30
2018-07-30T09:35:15.661Z,85.80
2018-07-30T09:37:44.052Z,86.70
2018-07-30T09:40:13.319Z,87.60
2018-07-30T09:42:41.793Z,87.60
2018-07-30T09:45:10.269Z,86.60
2018-07-30T09:47:38.833Z,90.10
2018-07-30T09:50:07.553Z,89.20
2018-07-30T09:52:36.933Z,78.30
2018-07-30T09:55:05.314Z,79.90
2018-07-30T09:57:33.816Z,79.40
2018-07-30T10:00:02.283Z,80.20
2018-07-30T10:02:30.669Z,77.80
2018-07-30T10:04:59.524Z,77.40
2018-07-30T10:07:28.120Z,79.30
2018-07-30T10:09:56.619Z,75.20
2018-07-30T10:12:25.009Z,74.70
2018-07-30T10:14:54.679Z,75.30
2018-07-30T10:17:23.099Z,73.70
2018-07-30T10:19:51.558Z,76.80
2018-07-30T10:22:19.951Z,74.90
2018-07-30T10:24:48.836Z,75.00
2018-07-30T10:27:17.332Z,72.60
2018-07-30T10:29:46.143Z,72.10
2018-07-30T10:32:15.629Z,66.70
2018-07-30T10:34:44.004Z,66.80
2018-07-30T10:37:12.966Z,68.60
2018-07-30T10:39:41.578Z,66.70
2018-07-30T10:42:10.062Z,69.70
2018-07-30T10:44:38.428Z,71.70
2018-07-30T10:47:07.018Z,67.30
2018-07-30T10:49:35.579Z,69.20
2018-07-30T10:52:03.996Z,63.10
2018-07-30T10:54:32.401Z,68.70
2018-07-30T10:57:01.666Z,69.00
2018-07-30T10:59:30.766Z,68.90
2018-07-30T11:01:59.250Z,67.80
2018-07-30T11:04:27.702Z,68.90
2018-07-30T11:06:56.134Z,67.50
2018-07-30T11:09:26.703Z,65.10
2018-07-30T11:11:53.189Z,65.10
2018-07-30T11:14:21.591Z,61.20
2018-07-30T11:16:50.791Z,64.70
2018-07-30T11:19:19.194Z,64.50
2018-07-30T11:21:47.580Z,65.40
2018-07-30T11:24:15.937Z,64.20
2018-07-30T11:26:44.569Z,61.50
2018-07-30T11:29:12.913Z,61.90
2018-07-30T11:31:41.516Z,60.00
2018-07-30T11:34:09.887Z,55.70
2018-07-30T11:36:38.261Z,59.30
2018-07-30T11:39:06.668Z,62.50
2018-07-30T11:41:35.064Z,57.80
2018-07-30T11:44:03.490Z,58.80
2018-07-30T11:46:31.856Z,56.10
2018-07-30T11:49:00.256Z,59.90
2018-07-30T11:51:28.631Z,59.40
2018-07-30T11:53:57.932Z,59.20
2018-07-30T11:56:26.307Z,59.50
2018-07-30T11:58:54.808Z,61.70
2018-07-30T12:01:23.312Z,61.10
2018-07-30T12:03:51.696Z,60.50
2018-07-30T12:06:20.122Z,60.40
2018-07-30T12:08:48.588Z,57.10
2018-07-30T12:11:17.066Z,57.90
2018-07-30T12:13:45.607Z,57.00
2018-07-30T12:16:14.066Z,55.40
2018-07-30T12:18:42.517Z,54.70
2018-07-30T12:21:11.568Z,55.60
2018-07-30T12:23:40.676Z,54.30
2018-07-30T12:26:09.137Z,53.80
2018-07-30T12:28:38.482Z,56.20
2018-07-30T12:31:06.980Z,56.90
2018-07-30T12:33:35.360Z,55.30
2018-07-30T12:36:04.559Z,55.60
2018-07-30T12:38:33.282Z,55.70
2018-07-30T12:41:01.882Z,55.40
2018-07-30T12:43:30.267Z,52.30
2018-07-30T12:45:58.642Z,55.70
2018-07-30T12:48:27.002Z,56.80
2018-07-30T12:50:56.398Z,56.10
2018-07-30T12:53:24.732Z,53.90
2018-07-30T12:55:54.023Z,54.40
2018-07-30T12:58:22.586Z,54.40
2018-07-30T13:00:51.224Z,50.80
2018-07-30T13:03:19.741Z,52.70
2018-07-30T13:05:48.220Z,52.30
2018-07-30T13:08:17.602Z,54.60
2018-07-30T13:10:46.122Z,54.50
2018-07-30T13:13:14.725Z,52.20
2018-07-30T13:15:43.324Z,51.70
2018-07-30T13:18:11.869Z,53.30
2018-07-30T13:20:40.239Z,50.20
2018-07-30T13:23:08.825Z,51.40
2018-07-30T13:25:37.207Z,49.60
2018-07-30T13:28:05.580Z,51.60
2018-07-30T13:30:34.374Z,48.00
2018-07-30T13:33:02.771Z,49.80
2018-07-30T13:35:31.241Z,50.60
2018-07-30T13:37:59.614Z,51.30
2018-07-30T13:40:27.994Z,51.20
2018-07-30T13:42:56.374Z,53.60
2018-07-30T13:45:24.727Z,54.00
2018-07-30T13:47:53.086Z,54.60
2018-07-30T13:50:21.526Z,54.60
2018-07-30T13:52:49.968Z,55.20
2018-07-30T13:55:18.371Z,54.10
2018-07-30T13:57:46.748Z,55.60
2018-07-30T14:00:15.172Z,54.70
2018-07-30T14:02:43.604Z,52.70
2018-07-30T14:05:11.975Z,53.40
2018-07-30T14:07:40.363Z,53.50
2018-07-30T14:10:08.722Z,54.40
2018-07-30T14:12:37.085Z,51.60
2018-07-30T14:15:05.491Z,54.00
2018-07-30T14:17:34.004Z,52.00
2018-07-30T14:20:02.606Z,52.50
2018-07-30T14:22:31.048Z,51.20
2018-07-30T14:24:59.424Z,54.50
2018-07-30T14:27:27.799Z,55.50
2018-07-30T14:29:56.310Z,54.80
2018-07-30T14:32:24.669Z,53.80
2018-07-30T14:34:53.042Z,53.80
2018-07-30T14:37:21.674Z,52.30
2018-07-30T14:39:50.098Z,51.00
2018-07-30T14:42:18.506Z,52.60
2018-07-30T14:44:46.994Z,50.40
2018-07-30T14:47:15.352Z,50.60
2018-07-30T14:49:43.910Z,51.30
2018-07-30T14:52:13.027Z,55.30
2018-07-30T14:54:41.562Z,55.20
2018-07-30T14:57:11.330Z,53.00
2018-07-30T14:59:39.814Z,56.50
2018-07-30T15:02:08.084Z,54.60
2018-07-30T15:04:36.509Z,56.30
2018-07-30T15:07:04.955Z,56.40
2018-07-30T15:09:33.366Z,54.00
2018-07-30T15:12:02.611Z,53.30
2018-07-30T15:14:31.019Z,53.20
2018-07-30T15:16:59.601Z,54.00
2018-07-30T15:19:27.985Z,53.80
2018-07-30T15:21:56.346Z,54.70
2018-07-30T15:24:24.896Z,55.90
2018-07-30T15:26:55.067Z,55.00
2018-07-30T15:29:23.441Z,54.90
2018-07-30T15:31:51.846Z,52.70
2018-07-30T15:34:20.300Z,53.40
2018-07-30T15:36:48.666Z,57.20
2018-07-30T15:39:17.064Z,59.30
2018-07-30T15:41:45.500Z,57.40
2018-07-30T15:44:14.042Z,59.40
2018-07-30T15:46:42.546Z,59.70
2018-07-30T15:49:11.005Z,61.20
2018-07-30T15:51:39.382Z,57.70
2018-07-30T15:54:07.749Z,55.70
2018-07-30T15:56:36.176Z,56.80
2018-07-30T15:59:04.517Z,56.00
2018-07-30T16:01:33.010Z,59.60
2018-07-30T16:04:01.496Z,61.40
2018-07-30T16:06:29.863Z,60.40
2018-07-30T16:08:58.324Z,59.90
2018-07-30T16:11:26.671Z,60.50
2018-07-30T16:13:55.098Z,61.40
2018-07-30T16:16:24.029Z,65.90
2018-07-30T16:18:53.182Z,58.40
2018-07-30T16:21:22.511Z,58.80
2018-07-30T16:23:50.985Z,56.80
2018-07-30T16:26:19.353Z,57.20
2018-07-30T16:28:47.768Z,57.70
2018-07-30T16:31:16.317Z,58.30
2018-07-30T16:33:44.685Z,54.70
2018-07-30T16:36:13.066Z,55.30
2018-07-30T16:38:41.436Z,58.40
2018-07-30T16:41:09.806Z,53.80
2018-07-30T16:43:38.169Z,56.00
2018-07-30T16:46:06.588Z,57.60
2018-07-30T16:48:35.049Z,54.50
2018-07-30T16:51:03.395Z,57.50
2018-07-30T16:53:31.776Z,57.20
2018-07-30T16:56:00.150Z,55.10
2018-07-30T16:58:28.558Z,55.20
2018-07-30T17:00:56.962Z,56.70
2018-07-30T17:03:25.328Z,57.00
2018-07-30T17:05:53.752Z,58.40
2018-07-30T17:08:22.328Z,57.90
2018-07-30T17:10:51.392Z,56.60
2018-07-30T17:13:19.749Z,56.60
2018-07-30T17:15:48.144Z,55.70
2018-07-30T17:18:17.203Z,57.50
2018-07-30T17:20:46.349Z,58.00
2018-07-30T17:23:14.772Z,57.90
2018-07-30T17:25:43.199Z,59.00
2018-07-30T17:28:11.574Z,62.10
2018-07-30T17:30:39.959Z,63.90
2018-07-30T17:33:08.340Z,65.20
2018-07-30T17:35:36.728Z,66.50
2018-07-30T17:38:05.282Z,66.00
2018-07-30T17:40:34.403Z,65.60
2018-07-30T17:43:03.652Z,65.40
2018-07-30T17:45:32.832Z,63.40
2018-07-30T17:48:01.976Z,63.40
2018-07-30T17:50:30.510Z,64.90
2018-07-30T17:52:58.866Z,66.90
2018-07-30T17:55:27.344Z,65.60
2018-07-30T17:57:55.724Z,64.40
2018-07-30T18:00:24.158Z,64.60
2018-07-30T18:02:52.676Z,64.70
2018-07-30T18:05:21.065Z,63.90
2018-07-30T18:07:49.569Z,65.30
2018-07-30T18:10:17.964Z,66.10
2018-07-30T18:12:46.496Z,65.80
2018-07-30T18:15:14.887Z,66.30
2018-07-30T18:17:43.570Z,65.50
2018-07-30T18:20:11.957Z,67.30
2018-07-30T18:22:40.353Z,66.40
2018-07-30T18:25:08.859Z,67.00
2018-07-30T18:27:37.315Z,69.10
2018-07-30T18:30:05.709Z,69.50
2018-07-30T18:32:34.185Z,69.30
2018-07-30T18:35:02.694Z,69.30
2018-07-30T18:37:31.858Z,70.70
2018-07-30T18:40:00.303Z,70.70
2018-07-30T18:42:28.722Z,70.10
2018-07-30T18:44:57.267Z,70.20
2018-07-30T18:47:25.644Z,70.40
2018-07-30T18:49:54.841Z,70.00
2018-07-30T18:52:23.951Z,70.00
2018-07-30T18:54:52.373Z,70.40
2018-07-30T18:57:21.549Z,71.60
2018-07-30T18:59:49.959Z,71.60
2018-07-30T19:02:19.129Z,78.20
2018-07-30T19:04:48.541Z,77.30
2018-07-30T19:07:17.651Z,77.30
2018-07-30T19:09:46.020Z,76.40
2018-07-30T19:12:14.483Z,75.80
2018-07-30T19:14:42.883Z,77.50
2018-07-30T19:17:12.243Z,78.60
2018-07-30T19:19:40.643Z,77.80
2018-07-30T19:22:09.334Z,80.30
2018-07-30T19:24:37.691Z,81.30
2018-07-30T19:27:06.064Z,79.50
2018-07-30T19:29:34.527Z,79.80
2018-07-30T19:32:03.331Z,80.30
2018-07-30T19:34:31.821Z,79.10
2018-07-30T19:37:00.188Z,78.50
2018-07-30T19:39:28.547Z,79.70
2018-07-30T19:41:56.950Z,81.50
2018-07-30T19:44:25.455Z,82.20
2018-07-30T19:46:53.749Z,82.20
2018-07-30T19:49:22.229Z,82.60
2018-07-30T19:51:50.608Z,84.50
2018-07-30T19:54:18.997Z,84.70
2018-07-30T19:56:47.453Z,84.20
2018-07-30T19:59:16.049Z,83.50
2018-07-30T20:01:44.446Z,83.80
2018-07-30T20:04:13.145Z,85.40
2018-07-30T20:06:41.557Z,86.20
2018-07-30T20:09:09.981Z,86.20
2018-07-30T20:11:38.455Z,86.70
2018-07-30T20:14:06.839Z,87.80
2018-07-30T20:16:35.215Z,88.80
2018-07-30T20:19:03.747Z,89.30
2018-07-30T20:21:32.167Z,89.60
2018-07-30T20:24:00.588Z,90.00
2018-07-30T20:26:29.019Z,89.80
2018-07-30T20:28:57.370Z,89.40
2018-07-30T20:31:25.758Z,90.00
2018-07-30T20:33:54.181Z,90.10
2018-07-30T20:36:22.561Z,90.10
2018-07-30T20:38:50.993Z,90.20
2018-07-30T20:41:19.397Z,90.30
2018-07-30T20:43:47.803Z,90.20
2018-07-30T20:46:16.227Z,90.30
2018-07-30T20:48:44.701Z,90.10
2018-07-30T20:51:13.899Z,90.10
2018-07-30T20:53:43.033Z,90.10
2018-07-30T20:56:11.819Z,90.10
2018-07-30T20:58:40.237Z,89.60
2018-07-30T21:01:08.667Z,90.00
2018-07-30T21:03:37.058Z,90.50
2018-07-30T21:06:05.443Z,90.40
2018-07-30T21:08:33.845Z,90.40
2018-07-30T21:11:02.263Z,90.70
2018-07-30T21:13:30.677Z,90.70
2018-07-30T21:15:59.081Z,90.80
2018-07-30T21:18:27.477Z,91.00
2018-07-30T21:20:55.883Z,91.10
2018-07-30T21:23:24.348Z,90.90
2018-07-30T21:25:52.793Z,91.10
2018-07-30T21:28:21.277Z,91.20
2018-07-30T21:33:24.423Z,91.60
2018-07-30T21:35:53.616Z,91.50
2018-07-30T21:38:22.804Z,91.90
2018-07-30T21:40:51.211Z,91.60
2018-07-30T21:43:20.333Z,92.20
2018-07-30T21:45:48.723Z,92.20
2018-07-30T21:48:17.302Z,92.20
2018-07-30T21:50:45.679Z,92.10
2018-07-30T21:53:14.027Z,92.00
2018-07-30T21:55:42.487Z,92.40
2018-07-30T21:58:10.878Z,92.50
2018-07-30T22:00:39.272Z,92.80
2018-07-30T22:03:08.403Z,93.10
2018-07-30T22:05:36.909Z,93.10
2018-07-30T22:08:05.569Z,93.00
2018-07-30T22:10:34.044Z,92.80
2018-07-30T22:13:02.416Z,93.20
2018-07-30T22:15:30.907Z,93.50
2018-07-30T22:17:59.295Z,93.70
2018-07-30T22:20:27.724Z,93.70
2018-07-30T22:22:56.090Z,93.60
2018-07-30T22:25:24.525Z,94.00
2018-07-30T22:27:52.957Z,94.00
2018-07-30T22:30:22.184Z,93.50
2018-07-30T22:32:51.356Z,93.40
2018-07-30T22:35:19.716Z,93.70
2018-07-30T22:37:48.088Z,93.60
2018-07-30T22:40:16.499Z,94.10
2018-07-30T22:42:45.638Z,94.60
2018-07-30T22:45:14.144Z,94.20
2018-07-30T22:47:43.465Z,94.40
2018-07-30T22:50:12.712Z,94.40
2018-07-30T22:52:41.080Z,94.40
2018-07-30T22:55:10.317Z,95.00
2018-07-30T22:57:38.665Z,95.00
2018-07-30T23:00:07.045Z,95.20
2018-07-30T23:02:35.487Z,95.20
2018-07-30T23:05:03.870Z,95.00
2018-07-30T23:07:32.278Z,94.90
2018-07-30T23:10:01.471Z,94.90
2018-07-30T23:12:29.930Z,94.90
2018-07-30T23:14:59.079Z,94.90
2018-07-30T23:17:27.464Z,94.80
2018-07-30T23:19:55.829Z,94.90
2018-07-30T23:22:24.222Z,95.10
2018-07-30T23:24:52.619Z,95.20
2018-07-30T23:27:21.010Z,95.30
2018-07-30T23:29:49.461Z,95.20
2018-07-30T23:32:17.840Z,95.00
2018-07-30T23:34:46.195Z,95.30
2018-07-30T23:37:14.659Z,95.60
2018-07-30T23:39:43.691Z,95.10
2018-07-30T23:42:12.043Z,95.10
2018-07-30T23:44:40.405Z,95.30
2018-07-30T23:47:09.583Z,96.10
2018-07-30T23:49:38.031Z,95.80
2018-07-30T23:52:06.538Z,95.90
2018-07-30T23:54:34.995Z,95.70
2018-07-30T23:57:03.445Z,95.90
2018-07-30T23:59:32.571Z,96.20
